sensor_id;sensor_type;location;lat;lon;timestamp;P1;durP1;ratioP1;P2;durP2;ratioP2
23567;SDS011;11962;50.838;4.430;2024-02-14T00:01:34;4.43;;;2.90;;
23567;SDS011;11962;50.838;4.430;2024-02-14T00:04:02;5.78;;;3.50;;
23567;SDS011;11962;50.838;4.430;2024-02-14T00:06:28;5.35;;;3.10;;
23567;SDS011;11962;50.838;4.430;2024-02-14T00:08:54;4.82;;;3.15;;
23567;SDS011;11962;50.838;4.430;2024-02-14T00:11:20;4.35;;;3.17;;
23567;SDS011;11962;50.838;4.430;2024-02-14T00:13:45;6.32;;;3.25;;
23567;SDS011;11962;50.838;4.430;2024-02-14T00:16:11;5.05;;;3.13;;
23567;SDS011;11962;50.838;4.430;2024-02-14T00:18:37;6.20;;;3.00;;
23567;SDS011;11962;50.838;4.430;2024-02-14T00:21:02;4.78;;;3.38;;
23567;SDS011;11962;50.838;4.430;2024-02-14T00:23:28;6.03;;;3.13;;
23567;SDS011;11962;50.838;4.430;2024-02-14T00:25:54;4.43;;;3.28;;
23567;SDS011;11962;50.838;4.430;2024-02-14T00:28:20;5.55;;;3.10;;
23567;SDS011;11962;50.838;4.430;2024-02-14T00:30:48;5.13;;;3.17;;
23567;SDS011;11962;50.838;4.430;2024-02-14T00:33:14;7.65;;;3.00;;
23567;SDS011;11962;50.838;4.430;2024-02-14T00:35:41;6.32;;;3.35;;
23567;SDS011;11962;50.838;4.430;2024-02-14T00:38:07;5.50;;;3.08;;
23567;SDS011;11962;50.838;4.430;2024-02-14T00:40:33;10.45;;;3.45;;
23567;SDS011;11962;50.838;4.430;2024-02-14T00:42:58;3.47;;;2.67;;
23567;SDS011;11962;50.838;4.430;2024-02-14T00:45:24;4.90;;;3.17;;
23567;SDS011;11962;50.838;4.430;2024-02-14T00:47:50;4.90;;;2.78;;
23567;SDS011;11962;50.838;4.430;2024-02-14T00:50:15;6.60;;;3.17;;
23567;SDS011;11962;50.838;4.430;2024-02-14T00:52:41;6.32;;;3.10;;
23567;SDS011;11962;50.838;4.430;2024-02-14T00:55:08;4.65;;;3.13;;
23567;SDS011;11962;50.838;4.430;2024-02-14T00:57:34;5.60;;;3.05;;
23567;SDS011;11962;50.838;4.430;2024-02-14T00:59:59;8.30;;;3.53;;
23567;SDS011;11962;50.838;4.430;2024-02-14T01:02:25;4.63;;;3.00;;
23567;SDS011;11962;50.838;4.430;2024-02-14T01:04:51;6.40;;;3.30;;
23567;SDS011;11962;50.838;4.430;2024-02-14T01:07:17;4.47;;;3.13;;
23567;SDS011;11962;50.838;4.430;2024-02-14T01:09:43;7.00;;;2.83;;
23567;SDS011;11962;50.838;4.430;2024-02-14T01:12:09;4.45;;;3.35;;
23567;SDS011;11962;50.838;4.430;2024-02-14T01:14:34;5.55;;;3.47;;
23567;SDS011;11962;50.838;4.430;2024-02-14T01:17:00;6.25;;;3.03;;
23567;SDS011;11962;50.838;4.430;2024-02-14T01:19:26;4.68;;;3.10;;
23567;SDS011;11962;50.838;4.430;2024-02-14T01:21:54;7.68;;;3.50;;
23567;SDS011;11962;50.838;4.430;2024-02-14T01:24:21;7.68;;;3.58;;
23567;SDS011;11962;50.838;4.430;2024-02-14T01:26:47;7.30;;;3.35;;
23567;SDS011;11962;50.838;4.430;2024-02-14T01:29:13;6.45;;;3.55;;
23567;SDS011;11962;50.838;4.430;2024-02-14T01:31:38;4.63;;;3.20;;
23567;SDS011;11962;50.838;4.430;2024-02-14T01:34:04;6.85;;;3.30;;
23567;SDS011;11962;50.838;4.430;2024-02-14T01:36:30;8.43;;;3.78;;
23567;SDS011;11962;50.838;4.430;2024-02-14T01:38:55;5.82;;;3.25;;
23567;SDS011;11962;50.838;4.430;2024-02-14T01:41:21;6.20;;;3.75;;
23567;SDS011;11962;50.838;4.430;2024-02-14T01:43:47;9.43;;;3.75;;
23567;SDS011;11962;50.838;4.430;2024-02-14T01:46:13;5.80;;;3.70;;
23567;SDS011;11962;50.838;4.430;2024-02-14T01:48:39;7.05;;;3.47;;
23567;SDS011;11962;50.838;4.430;2024-02-14T01:51:08;7.85;;;3.83;;
23567;SDS011;11962;50.838;4.430;2024-02-14T01:53:36;8.57;;;4.13;;
23567;SDS011;11962;50.838;4.430;2024-02-14T01:56:03;11.00;;;4.22;;
23567;SDS011;11962;50.838;4.430;2024-02-14T01:58:30;7.07;;;4.07;;
23567;SDS011;11962;50.838;4.430;2024-02-14T02:00:57;7.93;;;4.05;;
23567;SDS011;11962;50.838;4.430;2024-02-14T02:03:26;7.20;;;4.00;;
23567;SDS011;11962;50.838;4.430;2024-02-14T02:05:52;7.05;;;3.92;;
23567;SDS011;11962;50.838;4.430;2024-02-14T02:08:19;7.32;;;4.13;;
23567;SDS011;11962;50.838;4.430;2024-02-14T02:10:45;9.25;;;4.60;;
23567;SDS011;11962;50.838;4.430;2024-02-14T02:13:11;8.23;;;4.88;;
23567;SDS011;11962;50.838;4.430;2024-02-14T02:15:36;8.75;;;4.68;;
23567;SDS011;11962;50.838;4.430;2024-02-14T02:18:03;7.50;;;4.32;;
23567;SDS011;11962;50.838;4.430;2024-02-14T02:20:31;8.73;;;4.40;;
23567;SDS011;11962;50.838;4.430;2024-02-14T02:22:57;9.38;;;5.07;;
23567;SDS011;11962;50.838;4.430;2024-02-14T02:25:23;8.15;;;4.78;;
23567;SDS011;11962;50.838;4.430;2024-02-14T02:27:51;7.55;;;4.50;;
23567;SDS011;11962;50.838;4.430;2024-02-14T02:30:19;9.38;;;4.80;;
23567;SDS011;11962;50.838;4.430;2024-02-14T02:32:45;7.25;;;4.53;;
23567;SDS011;11962;50.838;4.430;2024-02-14T02:35:11;9.02;;;5.10;;
23567;SDS011;11962;50.838;4.430;2024-02-14T02:37:37;11.90;;;4.80;;
23567;SDS011;11962;50.838;4.430;2024-02-14T02:40:02;7.60;;;4.80;;
23567;SDS011;11962;50.838;4.430;2024-02-14T02:42:29;9.57;;;5.05;;
23567;SDS011;11962;50.838;4.430;2024-02-14T02:44:55;8.63;;;4.97;;
23567;SDS011;11962;50.838;4.430;2024-02-14T02:47:21;8.07;;;4.95;;
23567;SDS011;11962;50.838;4.430;2024-02-14T02:49:47;9.25;;;5.18;;
23567;SDS011;11962;50.838;4.430;2024-02-14T02:52:12;6.18;;;4.68;;
23567;SDS011;11962;50.838;4.430;2024-02-14T02:54:38;10.23;;;6.88;;
23567;SDS011;11962;50.838;4.430;2024-02-14T02:57:06;10.57;;;6.47;;
23567;SDS011;11962;50.838;4.430;2024-02-14T02:59:33;11.80;;;6.05;;
23567;SDS011;11962;50.838;4.430;2024-02-14T03:02:00;8.45;;;5.07;;
23567;SDS011;11962;50.838;4.430;2024-02-14T03:04:27;12.73;;;5.68;;
23567;SDS011;11962;50.838;4.430;2024-02-14T03:06:53;7.90;;;4.75;;
23567;SDS011;11962;50.838;4.430;2024-02-14T03:09:19;9.65;;;5.32;;
23567;SDS011;11962;50.838;4.430;2024-02-14T03:11:47;12.15;;;5.70;;
23567;SDS011;11962;50.838;4.430;2024-02-14T03:14:13;8.32;;;5.93;;
23567;SDS011;11962;50.838;4.430;2024-02-14T03:16:39;7.65;;;5.40;;
23567;SDS011;11962;50.838;4.430;2024-02-14T03:19:05;10.80;;;5.20;;
23567;SDS011;11962;50.838;4.430;2024-02-14T03:21:31;9.95;;;5.28;;
23567;SDS011;11962;50.838;4.430;2024-02-14T03:24:03;11.27;;;6.10;;
23567;SDS011;11962;50.838;4.430;2024-02-14T03:26:30;10.40;;;5.97;;
23567;SDS011;11962;50.838;4.430;2024-02-14T03:28:59;11.48;;;6.22;;
23567;SDS011;11962;50.838;4.430;2024-02-14T03:31:25;12.10;;;7.05;;
23567;SDS011;11962;50.838;4.430;2024-02-14T03:33:51;10.63;;;6.13;;
23567;SDS011;11962;50.838;4.430;2024-02-14T03:36:18;12.43;;;7.10;;
23567;SDS011;11962;50.838;4.430;2024-02-14T03:38:44;15.73;;;7.20;;
23567;SDS011;11962;50.838;4.430;2024-02-14T03:41:11;12.27;;;6.57;;
23567;SDS011;11962;50.838;4.430;2024-02-14T03:43:38;13.82;;;6.82;;
23567;SDS011;11962;50.838;4.430;2024-02-14T03:46:04;11.88;;;6.97;;
23567;SDS011;11962;50.838;4.430;2024-02-14T03:48:30;10.52;;;6.40;;
23567;SDS011;11962;50.838;4.430;2024-02-14T03:50:56;13.52;;;7.35;;
23567;SDS011;11962;50.838;4.430;2024-02-14T03:53:22;15.10;;;7.72;;
23567;SDS011;11962;50.838;4.430;2024-02-14T03:55:48;11.20;;;7.38;;
23567;SDS011;11962;50.838;4.430;2024-02-14T03:58:14;11.93;;;7.78;;
23567;SDS011;11962;50.838;4.430;2024-02-14T04:00:42;10.30;;;7.17;;
23567;SDS011;11962;50.838;4.430;2024-02-14T04:03:11;12.63;;;7.72;;
23567;SDS011;11962;50.838;4.430;2024-02-14T04:08:03;14.57;;;7.05;;
23567;SDS011;11962;50.838;4.430;2024-02-14T04:10:29;13.27;;;7.50;;
23567;SDS011;11962;50.838;4.430;2024-02-14T04:12:55;17.15;;;7.78;;
23567;SDS011;11962;50.838;4.430;2024-02-14T04:15:20;12.45;;;7.47;;
23567;SDS011;11962;50.838;4.430;2024-02-14T04:17:46;13.82;;;8.18;;
23567;SDS011;11962;50.838;4.430;2024-02-14T04:20:12;14.65;;;8.27;;
23567;SDS011;11962;50.838;4.430;2024-02-14T04:22:38;13.80;;;7.68;;
23567;SDS011;11962;50.838;4.430;2024-02-14T04:25:04;15.43;;;8.30;;
23567;SDS011;11962;50.838;4.430;2024-02-14T04:27:32;14.02;;;8.57;;
23567;SDS011;11962;50.838;4.430;2024-02-14T04:29:59;15.55;;;8.02;;
23567;SDS011;11962;50.838;4.430;2024-02-14T04:32:26;11.57;;;7.97;;
23567;SDS011;11962;50.838;4.430;2024-02-14T04:34:52;15.07;;;8.20;;
23567;SDS011;11962;50.838;4.430;2024-02-14T04:37:18;17.00;;;8.38;;
23567;SDS011;11962;50.838;4.430;2024-02-14T04:39:44;14.05;;;7.43;;
23567;SDS011;11962;50.838;4.430;2024-02-14T04:42:11;13.30;;;7.90;;
23567;SDS011;11962;50.838;4.430;2024-02-14T04:44:36;14.63;;;8.80;;
23567;SDS011;11962;50.838;4.430;2024-02-14T04:47:02;12.00;;;7.65;;
23567;SDS011;11962;50.838;4.430;2024-02-14T04:49:28;14.25;;;7.70;;
23567;SDS011;11962;50.838;4.430;2024-02-14T04:51:54;12.55;;;7.28;;
23567;SDS011;11962;50.838;4.430;2024-02-14T04:54:20;11.70;;;7.90;;
23567;SDS011;11962;50.838;4.430;2024-02-14T04:56:46;15.85;;;8.07;;
23567;SDS011;11962;50.838;4.430;2024-02-14T04:59:11;12.73;;;7.20;;
23567;SDS011;11962;50.838;4.430;2024-02-14T05:01:37;14.60;;;7.60;;
23567;SDS011;11962;50.838;4.430;2024-02-14T05:04:05;11.18;;;7.80;;
23567;SDS011;11962;50.838;4.430;2024-02-14T05:06:34;13.95;;;8.30;;
23567;SDS011;11962;50.838;4.430;2024-02-14T05:08:59;12.88;;;7.82;;
23567;SDS011;11962;50.838;4.430;2024-02-14T05:11:25;11.98;;;7.80;;
23567;SDS011;11962;50.838;4.430;2024-02-14T05:13:51;11.60;;;7.65;;
23567;SDS011;11962;50.838;4.430;2024-02-14T05:16:19;14.30;;;8.15;;
23567;SDS011;11962;50.838;4.430;2024-02-14T05:21:11;14.65;;;8.05;;
23567;SDS011;11962;50.838;4.430;2024-02-14T05:23:37;12.55;;;7.93;;
23567;SDS011;11962;50.838;4.430;2024-02-14T05:26:03;14.65;;;8.18;;
23567;SDS011;11962;50.838;4.430;2024-02-14T05:28:29;12.40;;;7.57;;
23567;SDS011;11962;50.838;4.430;2024-02-14T05:30:59;16.25;;;8.35;;
23567;SDS011;11962;50.838;4.430;2024-02-14T05:33:25;13.25;;;8.18;;
23567;SDS011;11962;50.838;4.430;2024-02-14T05:35:51;12.45;;;7.60;;
23567;SDS011;11962;50.838;4.430;2024-02-14T05:38:17;17.65;;;8.40;;
23567;SDS011;11962;50.838;4.430;2024-02-14T05:40:46;15.15;;;8.18;;
23567;SDS011;11962;50.838;4.430;2024-02-14T05:43:13;16.15;;;7.90;;
23567;SDS011;11962;50.838;4.430;2024-02-14T05:45:39;11.27;;;7.63;;
23567;SDS011;11962;50.838;4.430;2024-02-14T05:48:05;10.70;;;7.60;;
23567;SDS011;11962;50.838;4.430;2024-02-14T05:50:31;12.20;;;7.43;;
23567;SDS011;11962;50.838;4.430;2024-02-14T05:52:57;17.15;;;8.38;;
23567;SDS011;11962;50.838;4.430;2024-02-14T05:55:23;13.85;;;7.40;;
23567;SDS011;11962;50.838;4.430;2024-02-14T05:57:50;12.52;;;8.13;;
23567;SDS011;11962;50.838;4.430;2024-02-14T06:00:19;15.27;;;8.00;;
23567;SDS011;11962;50.838;4.430;2024-02-14T06:02:47;11.15;;;7.53;;
23567;SDS011;11962;50.838;4.430;2024-02-14T06:05:13;13.93;;;7.53;;
23567;SDS011;11962;50.838;4.430;2024-02-14T06:07:39;15.60;;;8.07;;
23567;SDS011;11962;50.838;4.430;2024-02-14T06:10:06;15.57;;;7.40;;
23567;SDS011;11962;50.838;4.430;2024-02-14T06:12:33;12.93;;;7.78;;
23567;SDS011;11962;50.838;4.430;2024-02-14T06:15:00;15.40;;;7.65;;
23567;SDS011;11962;50.838;4.430;2024-02-14T06:17:26;15.15;;;7.68;;
23567;SDS011;11962;50.838;4.430;2024-02-14T06:19:52;13.27;;;7.55;;
23567;SDS011;11962;50.838;4.430;2024-02-14T06:22:18;14.05;;;7.53;;
23567;SDS011;11962;50.838;4.430;2024-02-14T06:24:45;14.05;;;8.20;;
23567;SDS011;11962;50.838;4.430;2024-02-14T06:27:13;16.88;;;7.72;;
23567;SDS011;11962;50.838;4.430;2024-02-14T06:29:41;11.68;;;7.78;;
23567;SDS011;11962;50.838;4.430;2024-02-14T06:34:33;13.73;;;7.28;;
23567;SDS011;11962;50.838;4.430;2024-02-14T06:36:59;13.68;;;7.28;;
23567;SDS011;11962;50.838;4.430;2024-02-14T06:39:25;15.52;;;7.47;;
23567;SDS011;11962;50.838;4.430;2024-02-14T06:41:50;15.70;;;7.30;;
23567;SDS011;11962;50.838;4.430;2024-02-14T06:44:16;12.75;;;7.32;;
23567;SDS011;11962;50.838;4.430;2024-02-14T06:46:43;15.40;;;7.22;;
23567;SDS011;11962;50.838;4.430;2024-02-14T06:49:09;16.58;;;7.53;;
23567;SDS011;11962;50.838;4.430;2024-02-14T06:51:35;14.48;;;7.57;;
23567;SDS011;11962;50.838;4.430;2024-02-14T06:54:00;11.55;;;7.18;;
23567;SDS011;11962;50.838;4.430;2024-02-14T06:56:26;14.25;;;7.45;;
23567;SDS011;11962;50.838;4.430;2024-02-14T06:58:52;12.50;;;7.30;;
23567;SDS011;11962;50.838;4.430;2024-02-14T07:01:24;16.00;;;8.00;;
23567;SDS011;11962;50.838;4.430;2024-02-14T07:06:18;15.18;;;7.95;;
23567;SDS011;11962;50.838;4.430;2024-02-14T07:08:44;15.05;;;7.90;;
23567;SDS011;11962;50.838;4.430;2024-02-14T07:11:10;14.10;;;7.15;;
23567;SDS011;11962;50.838;4.430;2024-02-14T07:13:36;12.95;;;7.68;;
23567;SDS011;11962;50.838;4.430;2024-02-14T07:16:02;10.88;;;6.10;;
23567;SDS011;11962;50.838;4.430;2024-02-14T07:18:28;15.02;;;7.60;;
23567;SDS011;11962;50.838;4.430;2024-02-14T07:20:53;12.70;;;7.68;;
23567;SDS011;11962;50.838;4.430;2024-02-14T07:23:19;13.90;;;6.97;;
23567;SDS011;11962;50.838;4.430;2024-02-14T07:25:45;16.55;;;7.57;;
23567;SDS011;11962;50.838;4.430;2024-02-14T07:28:11;14.00;;;6.80;;
23567;SDS011;11962;50.838;4.430;2024-02-14T07:30:37;13.55;;;7.40;;
23567;SDS011;11962;50.838;4.430;2024-02-14T07:33:03;12.27;;;7.53;;
23567;SDS011;11962;50.838;4.430;2024-02-14T07:35:29;12.90;;;7.60;;
23567;SDS011;11962;50.838;4.430;2024-02-14T07:37:54;12.68;;;6.97;;
23567;SDS011;11962;50.838;4.430;2024-02-14T07:40:21;15.98;;;7.80;;
23567;SDS011;11962;50.838;4.430;2024-02-14T07:42:47;14.30;;;7.95;;
23567;SDS011;11962;50.838;4.430;2024-02-14T07:45:13;13.27;;;7.30;;
23567;SDS011;11962;50.838;4.430;2024-02-14T07:47:39;13.77;;;7.88;;
23567;SDS011;11962;50.838;4.430;2024-02-14T07:50:05;14.35;;;7.85;;
23567;SDS011;11962;50.838;4.430;2024-02-14T07:52:32;14.98;;;7.05;;
23567;SDS011;11962;50.838;4.430;2024-02-14T07:54:58;13.10;;;7.15;;
23567;SDS011;11962;50.838;4.430;2024-02-14T07:57:24;11.30;;;7.00;;
23567;SDS011;11962;50.838;4.430;2024-02-14T07:59:51;12.00;;;6.70;;
23567;SDS011;11962;50.838;4.430;2024-02-14T08:02:17;13.50;;;7.40;;
23567;SDS011;11962;50.838;4.430;2024-02-14T08:04:43;10.43;;;7.03;;
23567;SDS011;11962;50.838;4.430;2024-02-14T08:07:09;12.25;;;6.70;;
23567;SDS011;11962;50.838;4.430;2024-02-14T08:09:35;15.52;;;7.43;;
23567;SDS011;11962;50.838;4.430;2024-02-14T08:12:01;11.75;;;6.78;;
23567;SDS011;11962;50.838;4.430;2024-02-14T08:14:27;14.02;;;6.38;;
23567;SDS011;11962;50.838;4.430;2024-02-14T08:16:53;13.80;;;7.35;;
23567;SDS011;11962;50.838;4.430;2024-02-14T08:19:19;15.68;;;7.65;;
23567;SDS011;11962;50.838;4.430;2024-02-14T08:21:44;14.75;;;7.00;;
23567;SDS011;11962;50.838;4.430;2024-02-14T08:24:10;17.65;;;8.05;;
23567;SDS011;11962;50.838;4.430;2024-02-14T08:26:36;12.65;;;7.25;;
23567;SDS011;11962;50.838;4.430;2024-02-14T08:29:02;16.00;;;8.02;;
23567;SDS011;11962;50.838;4.430;2024-02-14T08:31:28;16.02;;;8.05;;
23567;SDS011;11962;50.838;4.430;2024-02-14T08:33:54;16.95;;;8.63;;
23567;SDS011;11962;50.838;4.430;2024-02-14T08:36:20;12.90;;;8.30;;
23567;SDS011;11962;50.838;4.430;2024-02-14T08:38:46;15.90;;;8.13;;
23567;SDS011;11962;50.838;4.430;2024-02-14T08:41:11;13.00;;;8.02;;
23567;SDS011;11962;50.838;4.430;2024-02-14T08:43:37;13.52;;;8.70;;
23567;SDS011;11962;50.838;4.430;2024-02-14T08:46:03;16.23;;;8.45;;
23567;SDS011;11962;50.838;4.430;2024-02-14T08:48:35;13.25;;;8.25;;
23567;SDS011;11962;50.838;4.430;2024-02-14T08:51:06;17.13;;;9.52;;
23567;SDS011;11962;50.838;4.430;2024-02-14T08:53:34;13.38;;;8.32;;
23567;SDS011;11962;50.838;4.430;2024-02-14T08:56:00;13.20;;;8.32;;
23567;SDS011;11962;50.838;4.430;2024-02-14T08:58:26;14.15;;;8.40;;
23567;SDS011;11962;50.838;4.430;2024-02-14T09:00:52;15.70;;;9.05;;
23567;SDS011;11962;50.838;4.430;2024-02-14T09:03:18;18.33;;;8.93;;
23567;SDS011;11962;50.838;4.430;2024-02-14T09:05:44;13.38;;;8.20;;
23567;SDS011;11962;50.838;4.430;2024-02-14T09:08:11;14.95;;;8.88;;
23567;SDS011;11962;50.838;4.430;2024-02-14T09:10:38;13.27;;;8.35;;
23567;SDS011;11962;50.838;4.430;2024-02-14T09:13:04;15.05;;;7.90;;
23567;SDS011;11962;50.838;4.430;2024-02-14T09:15:32;15.25;;;8.70;;
23567;SDS011;11962;50.838;4.430;2024-02-14T09:17:58;12.02;;;8.15;;
23567;SDS011;11962;50.838;4.430;2024-02-14T09:20:25;11.90;;;8.23;;
23567;SDS011;11962;50.838;4.430;2024-02-14T09:22:51;13.27;;;8.20;;
23567;SDS011;11962;50.838;4.430;2024-02-14T09:25:18;14.23;;;7.78;;
23567;SDS011;11962;50.838;4.430;2024-02-14T09:27:44;13.75;;;8.00;;
23567;SDS011;11962;50.838;4.430;2024-02-14T09:30:12;12.40;;;7.40;;
23567;SDS011;11962;50.838;4.430;2024-02-14T09:32:38;15.32;;;8.55;;
23567;SDS011;11962;50.838;4.430;2024-02-14T09:35:04;14.13;;;8.00;;
23567;SDS011;11962;50.838;4.430;2024-02-14T09:37:32;13.52;;;8.10;;
23567;SDS011;11962;50.838;4.430;2024-02-14T09:39:58;11.07;;;7.55;;
23567;SDS011;11962;50.838;4.430;2024-02-14T09:42:38;12.38;;;7.07;;
23567;SDS011;11962;50.838;4.430;2024-02-14T09:45:24;14.45;;;6.78;;
23567;SDS011;11962;50.838;4.430;2024-02-14T09:47:51;9.20;;;6.55;;
23567;SDS011;11962;50.838;4.430;2024-02-14T09:50:18;9.32;;;6.25;;
23567;SDS011;11962;50.838;4.430;2024-02-14T09:52:46;10.13;;;6.20;;
23567;SDS011;11962;50.838;4.430;2024-02-14T09:55:16;10.25;;;5.80;;
23567;SDS011;11962;50.838;4.430;2024-02-14T09:57:43;7.95;;;5.40;;
23567;SDS011;11962;50.838;4.430;2024-02-14T10:00:10;8.77;;;5.47;;
23567;SDS011;11962;50.838;4.430;2024-02-14T10:02:36;7.05;;;5.75;;
23567;SDS011;11962;50.838;4.430;2024-02-14T10:05:03;8.93;;;5.10;;
23567;SDS011;11962;50.838;4.430;2024-02-14T10:07:29;7.53;;;4.80;;
23567;SDS011;11962;50.838;4.430;2024-02-14T10:09:54;6.25;;;4.57;;
23567;SDS011;11962;50.838;4.430;2024-02-14T10:12:31;6.10;;;5.13;;
23567;SDS011;11962;50.838;4.430;2024-02-14T10:14:56;7.03;;;4.60;;
23567;SDS011;11962;50.838;4.430;2024-02-14T10:17:22;5.45;;;4.45;;
23567;SDS011;11962;50.838;4.430;2024-02-14T10:19:54;6.03;;;4.05;;
23567;SDS011;11962;50.838;4.430;2024-02-14T10:22:24;4.57;;;3.72;;
23567;SDS011;11962;50.838;4.430;2024-02-14T10:24:50;5.13;;;3.83;;
23567;SDS011;11962;50.838;4.430;2024-02-14T10:27:17;5.13;;;3.92;;
23567;SDS011;11962;50.838;4.430;2024-02-14T10:29:42;4.50;;;3.35;;
23567;SDS011;11962;50.838;4.430;2024-02-14T10:32:09;5.32;;;3.40;;
23567;SDS011;11962;50.838;4.430;2024-02-14T10:34:35;4.57;;;3.67;;
23567;SDS011;11962;50.838;4.430;2024-02-14T10:37:04;4.53;;;3.28;;
23567;SDS011;11962;50.838;4.430;2024-02-14T10:39:31;4.30;;;3.67;;
23567;SDS011;11962;50.838;4.430;2024-02-14T10:42:01;3.35;;;2.90;;
23567;SDS011;11962;50.838;4.430;2024-02-14T10:44:28;3.50;;;2.88;;
23567;SDS011;11962;50.838;4.430;2024-02-14T10:46:54;4.30;;;3.30;;
23567;SDS011;11962;50.838;4.430;2024-02-14T10:49:24;3.63;;;3.03;;
23567;SDS011;11962;50.838;4.430;2024-02-14T10:51:52;3.35;;;3.00;;
23567;SDS011;11962;50.838;4.430;2024-02-14T10:54:21;4.80;;;3.10;;
23567;SDS011;11962;50.838;4.430;2024-02-14T10:56:48;6.47;;;3.00;;
23567;SDS011;11962;50.838;4.430;2024-02-14T10:59:17;3.47;;;2.78;;
23567;SDS011;11962;50.838;4.430;2024-02-14T11:01:45;2.83;;;2.50;;
23567;SDS011;11962;50.838;4.430;2024-02-14T11:04:12;5.10;;;2.40;;
23567;SDS011;11962;50.838;4.430;2024-02-14T11:06:45;2.40;;;2.17;;
23567;SDS011;11962;50.838;4.430;2024-02-14T11:09:18;3.40;;;2.60;;
23567;SDS011;11962;50.838;4.430;2024-02-14T11:11:44;3.28;;;2.50;;
23567;SDS011;11962;50.838;4.430;2024-02-14T11:14:14;3.13;;;2.20;;
23567;SDS011;11962;50.838;4.430;2024-02-14T11:16:40;3.75;;;2.78;;
23567;SDS011;11962;50.838;4.430;2024-02-14T11:19:10;3.33;;;2.33;;
23567;SDS011;11962;50.838;4.430;2024-02-14T11:21:39;4.88;;;2.50;;
23567;SDS011;11962;50.838;4.430;2024-02-14T11:24:14;4.43;;;2.53;;
23567;SDS011;11962;50.838;4.430;2024-02-14T11:29:15;3.20;;;2.55;;
23567;SDS011;11962;50.838;4.430;2024-02-14T11:31:42;3.85;;;2.80;;
23567;SDS011;11962;50.838;4.430;2024-02-14T11:34:08;4.18;;;2.60;;
23567;SDS011;11962;50.838;4.430;2024-02-14T11:36:36;5.65;;;2.88;;
23567;SDS011;11962;50.838;4.430;2024-02-14T11:39:02;3.63;;;2.80;;
23567;SDS011;11962;50.838;4.430;2024-02-14T11:41:29;6.25;;;3.00;;
23567;SDS011;11962;50.838;4.430;2024-02-14T11:44:00;5.47;;;3.22;;
23567;SDS011;11962;50.838;4.430;2024-02-14T11:46:29;5.68;;;3.10;;
23567;SDS011;11962;50.838;4.430;2024-02-14T11:48:58;4.50;;;3.17;;
23567;SDS011;11962;50.838;4.430;2024-02-14T11:51:31;5.68;;;3.45;;
23567;SDS011;11962;50.838;4.430;2024-02-14T11:54:04;4.78;;;3.13;;
23567;SDS011;11962;50.838;4.430;2024-02-14T11:56:32;6.82;;;3.58;;
23567;SDS011;11962;50.838;4.430;2024-02-14T11:59:07;8.15;;;3.90;;
23567;SDS011;11962;50.838;4.430;2024-02-14T12:01:35;7.28;;;3.70;;
23567;SDS011;11962;50.838;4.430;2024-02-14T12:04:02;6.75;;;3.75;;
23567;SDS011;11962;50.838;4.430;2024-02-14T12:08:57;8.30;;;3.72;;
23567;SDS011;11962;50.838;4.430;2024-02-14T12:11:29;6.63;;;3.67;;
23567;SDS011;11962;50.838;4.430;2024-02-14T12:13:55;7.75;;;3.78;;
23567;SDS011;11962;50.838;4.430;2024-02-14T12:16:21;7.20;;;3.78;;
23567;SDS011;11962;50.838;4.430;2024-02-14T12:18:47;7.00;;;3.97;;
23567;SDS011;11962;50.838;4.430;2024-02-14T12:21:13;8.05;;;4.10;;
23567;SDS011;11962;50.838;4.430;2024-02-14T12:23:39;7.22;;;3.92;;
23567;SDS011;11962;50.838;4.430;2024-02-14T12:26:04;7.65;;;3.97;;
23567;SDS011;11962;50.838;4.430;2024-02-14T12:28:31;8.80;;;4.38;;
23567;SDS011;11962;50.838;4.430;2024-02-14T12:30:56;6.78;;;4.20;;
23567;SDS011;11962;50.838;4.430;2024-02-14T12:33:23;9.02;;;4.60;;
23567;SDS011;11962;50.838;4.430;2024-02-14T12:35:50;8.23;;;4.63;;
23567;SDS011;11962;50.838;4.430;2024-02-14T12:38:18;9.15;;;4.38;;
23567;SDS011;11962;50.838;4.430;2024-02-14T12:40:44;7.57;;;3.92;;
23567;SDS011;11962;50.838;4.430;2024-02-14T12:43:11;8.48;;;3.95;;
23567;SDS011;11962;50.838;4.430;2024-02-14T12:45:38;8.88;;;4.15;;
23567;SDS011;11962;50.838;4.430;2024-02-14T12:48:05;10.45;;;4.03;;
23567;SDS011;11962;50.838;4.430;2024-02-14T12:50:33;7.97;;;4.22;;
23567;SDS011;11962;50.838;4.430;2024-02-14T12:53:00;9.18;;;3.97;;
23567;SDS011;11962;50.838;4.430;2024-02-14T12:55:27;7.83;;;3.90;;
23567;SDS011;11962;50.838;4.430;2024-02-14T12:57:54;8.68;;;4.13;;
23567;SDS011;11962;50.838;4.430;2024-02-14T13:00:23;9.18;;;3.75;;
23567;SDS011;11962;50.838;4.430;2024-02-14T13:02:49;7.57;;;3.20;;
23567;SDS011;11962;50.838;4.430;2024-02-14T13:05:16;5.38;;;3.40;;
23567;SDS011;11962;50.838;4.430;2024-02-14T13:07:42;8.13;;;3.70;;
23567;SDS011;11962;50.838;4.430;2024-02-14T13:10:08;4.75;;;3.10;;
23567;SDS011;11962;50.838;4.430;2024-02-14T13:12:39;4.60;;;3.03;;
23567;SDS011;11962;50.838;4.430;2024-02-14T13:17:31;7.25;;;3.80;;
23567;SDS011;11962;50.838;4.430;2024-02-14T13:19:57;6.85;;;2.83;;
23567;SDS011;11962;50.838;4.430;2024-02-14T13:22:24;6.60;;;3.22;;
23567;SDS011;11962;50.838;4.430;2024-02-14T13:24:51;7.15;;;2.90;;
23567;SDS011;11962;50.838;4.430;2024-02-14T13:27:16;4.60;;;2.90;;
23567;SDS011;11962;50.838;4.430;2024-02-14T13:29:42;5.10;;;2.65;;
23567;SDS011;11962;50.838;4.430;2024-02-14T13:32:08;6.10;;;3.05;;
23567;SDS011;11962;50.838;4.430;2024-02-14T13:34:34;7.55;;;2.70;;
23567;SDS011;11962;50.838;4.430;2024-02-14T13:37:00;6.00;;;3.00;;
23567;SDS011;11962;50.838;4.430;2024-02-14T13:39:27;7.13;;;3.03;;
23567;SDS011;11962;50.838;4.430;2024-02-14T13:41:53;3.80;;;2.55;;
23567;SDS011;11962;50.838;4.430;2024-02-14T13:44:20;5.20;;;2.60;;
23567;SDS011;11962;50.838;4.430;2024-02-14T13:46:45;5.95;;;2.70;;
23567;SDS011;11962;50.838;4.430;2024-02-14T13:49:11;4.55;;;2.70;;
23567;SDS011;11962;50.838;4.430;2024-02-14T13:51:41;5.15;;;2.03;;
23567;SDS011;11962;50.838;4.430;2024-02-14T13:54:07;4.57;;;2.35;;
23567;SDS011;11962;50.838;4.430;2024-02-14T13:56:34;6.53;;;2.50;;
23567;SDS011;11962;50.838;4.430;2024-02-14T13:59:00;4.43;;;2.28;;
23567;SDS011;11962;50.838;4.430;2024-02-14T14:01:25;5.85;;;2.35;;
23567;SDS011;11962;50.838;4.430;2024-02-14T14:03:51;3.90;;;2.17;;
23567;SDS011;11962;50.838;4.430;2024-02-14T14:06:19;4.00;;;2.20;;
23567;SDS011;11962;50.838;4.430;2024-02-14T14:08:46;6.75;;;2.53;;
23567;SDS011;11962;50.838;4.430;2024-02-14T14:11:11;3.05;;;1.98;;
23567;SDS011;11962;50.838;4.430;2024-02-14T14:13:37;2.28;;;2.08;;
23567;SDS011;11962;50.838;4.430;2024-02-14T14:16:03;6.47;;;2.10;;
23567;SDS011;11962;50.838;4.430;2024-02-14T14:18:31;2.85;;;2.13;;
23567;SDS011;11962;50.838;4.430;2024-02-14T14:20:57;3.47;;;1.92;;
23567;SDS011;11962;50.838;4.430;2024-02-14T14:23:23;5.20;;;1.95;;
23567;SDS011;11962;50.838;4.430;2024-02-14T14:25:49;6.55;;;2.20;;
23567;SDS011;11962;50.838;4.430;2024-02-14T14:28:15;4.47;;;2.05;;
23567;SDS011;11962;50.838;4.430;2024-02-14T14:30:42;2.88;;;1.92;;
23567;SDS011;11962;50.838;4.430;2024-02-14T14:33:09;6.07;;;1.88;;
23567;SDS011;11962;50.838;4.430;2024-02-14T14:35:35;6.13;;;2.05;;
23567;SDS011;11962;50.838;4.430;2024-02-14T14:38:02;4.13;;;1.90;;
23567;SDS011;11962;50.838;4.430;2024-02-14T14:40:28;3.13;;;1.90;;
23567;SDS011;11962;50.838;4.430;2024-02-14T14:42:54;4.88;;;2.08;;
23567;SDS011;11962;50.838;4.430;2024-02-14T14:45:20;3.53;;;1.85;;
23567;SDS011;11962;50.838;4.430;2024-02-14T14:47:46;5.75;;;2.00;;
23567;SDS011;11962;50.838;4.430;2024-02-14T14:50:11;6.38;;;1.83;;
23567;SDS011;11962;50.838;4.430;2024-02-14T14:52:38;4.47;;;1.98;;
23567;SDS011;11962;50.838;4.430;2024-02-14T14:55:04;3.70;;;1.75;;